createdAt,value
2023-04-30T00:00:57.746Z,95093.00
2023-04-30T00:01:57.780Z,95091.00
2023-04-30T00:02:57.958Z,95093.00
2023-04-30T00:03:58.067Z,95095.00
2023-04-30T00:04:57.884Z,95093.00
2023-04-30T00:05:57.917Z,95095.00
2023-04-30T00:06:57.918Z,95095.00
2023-04-30T00:07:57.949Z,95095.00
2023-04-30T00:08:57.999Z,95095.00
2023-04-30T00:09:58.039Z,95097.00
2023-04-30T00:10:58.085Z,95097.00
2023-04-30T00:11:58.140Z,95099.00
2023-04-30T00:12:58.150Z,95099.00
2023-04-30T00:13:58.197Z,95101.00
2023-04-30T00:14:58.209Z,95101.00
2023-04-30T00:15:58.301Z,95103.00
2023-04-30T00:16:58.323Z,95103.00
2023-04-30T00:17:58.345Z,95103.00
2023-04-30T00:18:58.472Z,95105.00
2023-04-30T00:19:58.383Z,95105.00
2023-04-30T00:20:58.433Z,95105.00
2023-04-30T00:21:58.465Z,95105.00
2023-04-30T00:22:58.501Z,95105.00
2023-04-30T00:23:58.552Z,95105.00
2023-04-30T00:24:58.532Z,95107.00
2023-04-30T00:25:58.589Z,95109.00
2023-04-30T00:26:58.644Z,95109.00
2023-04-30T00:27:58.668Z,95107.00
2023-04-30T00:28:58.662Z,95107.00
2023-04-30T00:29:58.722Z,95107.00
2023-04-30T00:30:58.757Z,95107.00
2023-04-30T00:31:58.840Z,95107.00
2023-04-30T00:32:58.939Z,95105.00
2023-04-30T00:33:58.859Z,95103.00
2023-04-30T00:34:58.865Z,95103.00
2023-04-30T00:35:58.927Z,95105.00
2023-04-30T00:36:58.984Z,95103.00
2023-04-30T00:37:58.992Z,95105.00
2023-04-30T00:38:59.041Z,95103.00
2023-04-30T00:39:59.065Z,95103.00
2023-04-30T00:40:59.083Z,95103.00
2023-04-30T00:41:59.120Z,95103.00
2023-04-30T00:42:59.144Z,95105.00
2023-04-30T00:43:59.201Z,95105.00
2023-04-30T00:44:59.223Z,95105.00
2023-04-30T00:45:59.298Z,95107.00
2023-04-30T00:46:59.315Z,95109.00
2023-04-30T00:47:59.397Z,95107.00
2023-04-30T00:48:59.343Z,95109.00
2023-04-30T00:49:59.400Z,95109.00
2023-04-30T00:50:59.421Z,95109.00
2023-04-30T00:51:59.463Z,95111.00
2023-04-30T00:52:59.519Z,95109.00
2023-04-30T00:53:59.555Z,95109.00
2023-04-30T00:54:59.532Z,95109.00
2023-04-30T00:55:59.604Z,95107.00
2023-04-30T00:56:59.612Z,95105.00
2023-04-30T00:57:59.665Z,95105.00
2023-04-30T00:58:59.678Z,95105.00
2023-04-30T00:59:59.705Z,95105.00
2023-04-30T01:00:59.801Z,95103.00
2023-04-30T01:01:59.826Z,95105.00
2023-04-30T01:02:59.961Z,95103.00
2023-04-30T01:03:59.886Z,95101.00
2023-04-30T01:04:59.901Z,95103.00
2023-04-30T01:06:00.019Z,95101.00
2023-04-30T01:06:59.971Z,95101.00
2023-04-30T01:08:00.042Z,95097.00
2023-04-30T01:09:00.079Z,95099.00
2023-04-30T01:10:00.171Z,95095.00
2023-04-30T01:11:00.157Z,95097.00
2023-04-30T01:12:00.178Z,95095.00
2023-04-30T01:13:00.201Z,95095.00
2023-04-30T01:14:00.280Z,95091.00
2023-04-30T01:15:00.583Z,95091.00
2023-04-30T01:16:00.361Z,95091.00
2023-04-30T01:17:00.366Z,95093.00
2023-04-30T01:18:00.446Z,95091.00
2023-04-30T01:19:00.586Z,95095.00
2023-04-30T01:20:00.520Z,95095.00
2023-04-30T01:21:00.610Z,95095.00
2023-04-30T01:22:00.570Z,95097.00
2023-04-30T01:23:00.613Z,95099.00
2023-04-30T01:24:00.669Z,95097.00
2023-04-30T01:25:00.721Z,95099.00
2023-04-30T01:26:00.756Z,95099.00
2023-04-30T01:27:00.802Z,95101.00
2023-04-30T01:28:00.794Z,95103.00
2023-04-30T01:29:00.877Z,95103.00
2023-04-30T01:30:00.893Z,95101.00
2023-04-30T01:31:01.009Z,95105.00
2023-04-30T01:32:00.916Z,95105.00
2023-04-30T01:33:01.030Z,95101.00
2023-04-30T01:34:01.031Z,95107.00
2023-04-30T01:35:03.079Z,95101.00
2023-04-30T01:36:01.094Z,95101.00
2023-04-30T01:37:01.122Z,95099.00
2023-04-30T01:38:01.157Z,95099.00
2023-04-30T01:39:01.208Z,95103.00
2023-04-30T01:40:01.241Z,95095.00
2023-04-30T01:41:01.277Z,95097.00
2023-04-30T01:42:01.282Z,95099.00
2023-04-30T01:43:01.345Z,95099.00
2023-04-30T01:44:01.380Z,95097.00
2023-04-30T01:45:01.447Z,95099.00
2023-04-30T01:46:01.480Z,95099.00
2023-04-30T01:47:01.460Z,95099.00
2023-04-30T01:48:01.612Z,95099.00
2023-04-30T01:49:01.563Z,95101.00
2023-04-30T01:50:01.618Z,95101.00
2023-04-30T01:51:01.618Z,95107.00
2023-04-30T01:52:01.632Z,95105.00
2023-04-30T01:53:01.714Z,95105.00
2023-04-30T01:54:01.755Z,95107.00
2023-04-30T01:55:01.769Z,95107.00
2023-04-30T01:56:01.806Z,95107.00
2023-04-30T01:57:01.812Z,95105.00
2023-04-30T01:58:01.870Z,95107.00
2023-04-30T01:59:01.932Z,95107.00
2023-04-30T02:00:01.926Z,95105.00
2023-04-30T02:01:02.001Z,95103.00
2023-04-30T02:02:02.039Z,95103.00
2023-04-30T02:03:02.135Z,95105.00
2023-04-30T02:04:02.251Z,95101.00
2023-04-30T02:05:02.102Z,95103.00
2023-04-30T02:06:02.190Z,95103.00
2023-04-30T02:07:02.181Z,95103.00
2023-04-30T02:08:02.214Z,95101.00
2023-04-30T02:09:02.311Z,95101.00
2023-04-30T02:10:02.296Z,95101.00
2023-04-30T02:11:02.390Z,95101.00
2023-04-30T02:12:02.409Z,95103.00
2023-04-30T02:13:02.427Z,95103.00
2023-04-30T02:14:02.476Z,95107.00
2023-04-30T02:15:02.529Z,95103.00
2023-04-30T02:16:02.578Z,95107.00
2023-04-30T02:17:02.593Z,95103.00
2023-04-30T02:18:02.717Z,95103.00
2023-04-30T02:19:02.691Z,95103.00
2023-04-30T02:20:02.678Z,95103.00
2023-04-30T02:21:02.739Z,95107.00
2023-04-30T02:22:02.752Z,95105.00
2023-04-30T02:23:02.803Z,95107.00
2023-04-30T02:24:02.833Z,95107.00
2023-04-30T02:25:02.889Z,95109.00
2023-04-30T02:26:02.928Z,95109.00
2023-04-30T02:27:03.002Z,95109.00
2023-04-30T02:28:03.009Z,95111.00
2023-04-30T02:29:03.075Z,95113.00
2023-04-30T02:30:03.114Z,95113.00
2023-04-30T02:31:03.158Z,95115.00
2023-04-30T02:32:03.241Z,95115.00
2023-04-30T02:33:03.258Z,95115.00
2023-04-30T02:34:03.305Z,95117.00
2023-04-30T02:35:03.342Z,95117.00
2023-04-30T02:36:03.384Z,95119.00
2023-04-30T02:37:03.418Z,95121.00
2023-04-30T02:38:03.477Z,95119.00
2023-04-30T02:39:03.537Z,95119.00
2023-04-30T02:40:03.608Z,95119.00
2023-04-30T02:41:03.618Z,95119.00
2023-04-30T02:42:03.670Z,95117.00
2023-04-30T02:43:03.694Z,95117.00
2023-04-30T02:44:03.731Z,95115.00
2023-04-30T02:45:03.776Z,95117.00
2023-04-30T02:46:03.890Z,95117.00
2023-04-30T02:47:03.885Z,95115.00
2023-04-30T02:48:04.028Z,95113.00
2023-04-30T02:49:03.968Z,95113.00
2023-04-30T02:50:04.012Z,95113.00
2023-04-30T02:51:04.042Z,95113.00
2023-04-30T02:52:04.052Z,95109.00
2023-04-30T02:53:04.093Z,95109.00
2023-04-30T02:54:04.170Z,95107.00
2023-04-30T02:55:04.225Z,95109.00
2023-04-30T02:56:04.222Z,95107.00
2023-04-30T02:57:04.256Z,95105.00
2023-04-30T02:58:04.309Z,95105.00
2023-04-30T02:59:04.357Z,95105.00
2023-04-30T03:00:04.406Z,95105.00
2023-04-30T03:01:04.475Z,95103.00
2023-04-30T03:02:04.529Z,95103.00
2023-04-30T03:03:04.672Z,95101.00
2023-04-30T03:04:04.610Z,95101.00
2023-04-30T03:05:04.623Z,95101.00
2023-04-30T03:06:04.731Z,95101.00
2023-04-30T03:07:04.739Z,95101.00
2023-04-30T03:08:04.776Z,95103.00
2023-04-30T03:09:04.843Z,95105.00
2023-04-30T03:10:04.839Z,95105.00
2023-04-30T03:11:04.926Z,95103.00
2023-04-30T03:12:04.943Z,95107.00
2023-04-30T03:13:04.967Z,95105.00
2023-04-30T03:14:05.046Z,95111.00
2023-04-30T03:15:05.028Z,95111.00
2023-04-30T03:16:05.115Z,95107.00
2023-04-30T03:17:05.139Z,95109.00
2023-04-30T03:18:05.193Z,95109.00
2023-04-30T03:19:05.241Z,95109.00
2023-04-30T03:20:05.262Z,95109.00
2023-04-30T03:21:05.302Z,95109.00
2023-04-30T03:22:05.869Z,95109.00
2023-04-30T03:23:05.398Z,95109.00
2023-04-30T03:24:05.439Z,95105.00
2023-04-30T03:25:05.501Z,95105.00
2023-04-30T03:26:05.546Z,95105.00
2023-04-30T03:27:05.563Z,95103.00
2023-04-30T03:28:05.629Z,95103.00
2023-04-30T03:29:05.666Z,95103.00
2023-04-30T03:30:05.670Z,95105.00
2023-04-30T03:31:05.852Z,95105.00
2023-04-30T03:32:05.771Z,95107.00
2023-04-30T03:33:05.924Z,95107.00
2023-04-30T03:34:05.915Z,95107.00
2023-04-30T03:35:05.915Z,95107.00
2023-04-30T03:36:05.975Z,95107.00
2023-04-30T03:37:06.009Z,95105.00
2023-04-30T03:38:06.032Z,95105.00
2023-04-30T03:39:06.166Z,95103.00
2023-04-30T03:40:06.151Z,95101.00
2023-04-30T03:41:06.207Z,95101.00
2023-04-30T03:42:06.234Z,95099.00
2023-04-30T03:43:06.268Z,95101.00
2023-04-30T03:44:06.335Z,95101.00
2023-04-30T03:45:06.360Z,95097.00
2023-04-30T03:46:06.431Z,95097.00
2023-04-30T03:47:06.453Z,95097.00
2023-04-30T03:48:06.569Z,95097.00
2023-04-30T03:49:06.532Z,95099.00
2023-04-30T03:50:06.605Z,95099.00
2023-04-30T03:51:06.638Z,95099.00
2023-04-30T03:52:06.686Z,95101.00
2023-04-30T03:53:06.752Z,95103.00
2023-04-30T03:54:06.763Z,95105.00
2023-04-30T03:55:06.816Z,95107.00
2023-04-30T03:56:06.858Z,95109.00
2023-04-30T03:57:06.939Z,95109.00
2023-04-30T03:58:06.970Z,95111.00
2023-04-30T03:59:07.043Z,95111.00
2023-04-30T04:00:07.081Z,95113.00
2023-04-30T04:01:07.104Z,95113.00
2023-04-30T04:02:07.151Z,95113.00
2023-04-30T04:03:07.257Z,95113.00
2023-04-30T04:04:07.271Z,95113.00
2023-04-30T04:05:07.327Z,95113.00
2023-04-30T04:06:07.378Z,95113.00
2023-04-30T04:07:07.385Z,95111.00
2023-04-30T04:08:07.421Z,95111.00
2023-04-30T04:09:07.514Z,95111.00
2023-04-30T04:10:07.499Z,95111.00
2023-04-30T04:11:07.546Z,95111.00
2023-04-30T04:12:07.619Z,95107.00
2023-04-30T04:13:07.713Z,95109.00
2023-04-30T04:14:07.700Z,95107.00
2023-04-30T04:15:07.743Z,95107.00
2023-04-30T04:16:07.825Z,95111.00
2023-04-30T04:17:07.806Z,95109.00
2023-04-30T04:18:07.956Z,95109.00
2023-04-30T04:19:07.915Z,95109.00
2023-04-30T04:20:07.945Z,95109.00
2023-04-30T04:21:07.983Z,95111.00
2023-04-30T04:22:08.074Z,95107.00
2023-04-30T04:23:08.067Z,95107.00
2023-04-30T04:24:08.156Z,95109.00
2023-04-30T04:25:08.178Z,95109.00
2023-04-30T04:26:08.228Z,95109.00
2023-04-30T04:27:08.273Z,95107.00
2023-04-30T04:28:08.296Z,95109.00
2023-04-30T04:29:09.017Z,95109.00
2023-04-30T04:30:08.358Z,95109.00
2023-04-30T04:31:08.422Z,95107.00
2023-04-30T04:32:08.484Z,95109.00
2023-04-30T04:33:08.525Z,95107.00
2023-04-30T04:34:08.553Z,95109.00
2023-04-30T04:35:08.584Z,95109.00
2023-04-30T04:36:08.610Z,95111.00
2023-04-30T04:37:08.741Z,95109.00
2023-04-30T04:38:08.693Z,95109.00
2023-04-30T04:39:08.803Z,95107.00
2023-04-30T04:40:08.805Z,95107.00
2023-04-30T04:41:08.879Z,95109.00
2023-04-30T04:42:08.912Z,95111.00
2023-04-30T04:43:08.972Z,95109.00
2023-04-30T04:44:09.016Z,95111.00
2023-04-30T04:45:09.027Z,95111.00
2023-04-30T04:46:09.218Z,95109.00
2023-04-30T04:47:09.113Z,95109.00
2023-04-30T04:48:09.141Z,95111.00
2023-04-30T04:49:09.211Z,95109.00
2023-04-30T04:50:09.270Z,95113.00
2023-04-30T04:51:09.295Z,95111.00
2023-04-30T04:52:09.375Z,95113.00
2023-04-30T04:53:09.420Z,95113.00
2023-04-30T04:54:09.463Z,95115.00
2023-04-30T04:55:09.449Z,95115.00
2023-04-30T04:56:09.502Z,95115.00
2023-04-30T04:57:09.563Z,95109.00
2023-04-30T04:58:09.644Z,95111.00
2023-04-30T04:59:09.673Z,95113.00
2023-04-30T05:00:09.673Z,95113.00
2023-04-30T05:01:09.740Z,95109.00
2023-04-30T05:02:10.055Z,95113.00
2023-04-30T05:03:09.947Z,95109.00
2023-04-30T05:04:09.904Z,95113.00
2023-04-30T05:05:09.912Z,95109.00
2023-04-30T05:06:10.023Z,95111.00
2023-04-30T05:07:10.006Z,95111.00
2023-04-30T05:08:10.062Z,95109.00
2023-04-30T05:09:10.070Z,95109.00
2023-04-30T05:10:10.929Z,95113.00
2023-04-30T05:11:10.152Z,95115.00
2023-04-30T05:12:10.224Z,95115.00
2023-04-30T05:13:10.284Z,95115.00
2023-04-30T05:14:10.334Z,95115.00
2023-04-30T05:15:10.388Z,95115.00
2023-04-30T05:16:10.452Z,95117.00
2023-04-30T05:17:10.462Z,95115.00
2023-04-30T05:18:10.527Z,95115.00
2023-04-30T05:19:10.557Z,95115.00
2023-04-30T05:20:10.591Z,95115.00
2023-04-30T05:21:10.630Z,95115.00
2023-04-30T05:22:10.668Z,95111.00
2023-04-30T05:23:10.763Z,95111.00
2023-04-30T05:24:10.779Z,95109.00
2023-04-30T05:25:10.814Z,95109.00
2023-04-30T05:26:10.903Z,95111.00
2023-04-30T05:27:10.909Z,95117.00
2023-04-30T05:28:11.001Z,95113.00
2023-04-30T05:29:11.435Z,95113.00
2023-04-30T05:30:11.060Z,95111.00
2023-04-30T05:31:11.147Z,95111.00
2023-04-30T05:32:11.210Z,95113.00
2023-04-30T05:33:11.261Z,95111.00
2023-04-30T05:34:11.260Z,95111.00
2023-04-30T05:35:11.338Z,95109.00
2023-04-30T05:36:11.362Z,95115.00
2023-04-30T05:37:11.398Z,95111.00
2023-04-30T05:38:11.491Z,95113.00
2023-04-30T05:39:11.499Z,95115.00
2023-04-30T05:40:11.581Z,95113.00
2023-04-30T05:41:11.626Z,95115.00
2023-04-30T05:42:11.663Z,95113.00
2023-04-30T05:43:11.700Z,95115.00
2023-04-30T05:44:11.772Z,95115.00
2023-04-30T05:45:11.764Z,95113.00
2023-04-30T05:46:11.853Z,95109.00
2023-04-30T05:47:11.888Z,95115.00
2023-04-30T05:48:11.971Z,95115.00
2023-04-30T05:49:12.048Z,95111.00
2023-04-30T05:50:12.027Z,95111.00
2023-04-30T05:51:12.078Z,95115.00
2023-04-30T05:52:12.099Z,95113.00
2023-04-30T05:53:12.184Z,95115.00
2023-04-30T05:54:12.225Z,95115.00
2023-04-30T05:55:12.268Z,95115.00
2023-04-30T05:56:12.308Z,95119.00
2023-04-30T05:57:12.355Z,95119.00
2023-04-30T05:58:12.375Z,95117.00
2023-04-30T05:59:12.421Z,95117.00
2023-04-30T06:00:12.454Z,95117.00
2023-04-30T06:01:12.516Z,95119.00
2023-04-30T06:02:12.564Z,95117.00
2023-04-30T06:03:12.623Z,95115.00
2023-04-30T06:04:12.625Z,95115.00
2023-04-30T06:05:15.281Z,95115.00
2023-04-30T06:06:12.749Z,95115.00
2023-04-30T06:07:12.659Z,95117.00
2023-04-30T06:08:12.641Z,95117.00
2023-04-30T06:09:12.633Z,95115.00
2023-04-30T06:10:12.707Z,95117.00
2023-04-30T06:11:12.616Z,95117.00
2023-04-30T06:12:12.617Z,95117.00
2023-04-30T06:13:12.605Z,95119.00
2023-04-30T06:14:12.636Z,95121.00
2023-04-30T06:15:12.644Z,95117.00
2023-04-30T06:16:12.608Z,95119.00
2023-04-30T06:17:12.613Z,95117.00
2023-04-30T06:18:12.590Z,95119.00
2023-04-30T06:19:12.606Z,95119.00
2023-04-30T06:20:12.587Z,95117.00
2023-04-30T06:21:12.585Z,95117.00
2023-04-30T06:22:12.547Z,95119.00
2023-04-30T06:23:12.560Z,95117.00
2023-04-30T06:24:12.552Z,95119.00
2023-04-30T06:25:12.536Z,95117.00
2023-04-30T06:26:12.554Z,95115.00
2023-04-30T06:27:12.576Z,95117.00
2023-04-30T06:28:12.525Z,95113.00
2023-04-30T06:29:12.542Z,95113.00
2023-04-30T06:30:12.524Z,95119.00
2023-04-30T06:31:12.519Z,95115.00
2023-04-30T06:32:12.517Z,95119.00
2023-04-30T06:33:12.474Z,95123.00
2023-04-30T06:34:12.492Z,95121.00
2023-04-30T06:35:12.469Z,95123.00
2023-04-30T06:36:12.473Z,95123.00
2023-04-30T06:37:12.557Z,95125.00
2023-04-30T06:38:12.462Z,95125.00
2023-04-30T06:39:12.451Z,95125.00
2023-04-30T06:40:12.474Z,95125.00
2023-04-30T06:41:12.442Z,95123.00
2023-04-30T06:42:12.454Z,95123.00
2023-04-30T06:43:12.420Z,95123.00
2023-04-30T06:44:12.451Z,95119.00
2023-04-30T06:45:12.438Z,95121.00
2023-04-30T06:46:12.412Z,95125.00
2023-04-30T06:47:12.402Z,95123.00
2023-04-30T06:48:12.454Z,95121.00
2023-04-30T06:49:12.486Z,95123.00
2023-04-30T06:50:12.517Z,95123.00
2023-04-30T06:51:12.611Z,95121.00
2023-04-30T06:52:12.604Z,95121.00
2023-04-30T06:53:12.680Z,95121.00
2023-04-30T06:54:12.674Z,95121.00
2023-04-30T06:55:12.760Z,95125.00
2023-04-30T06:56:12.754Z,95127.00
2023-04-30T06:57:12.785Z,95125.00
2023-04-30T06:58:12.848Z,95125.00
2023-04-30T06:59:12.864Z,95125.00
2023-04-30T07:00:12.952Z,95125.00
2023-04-30T07:01:13.002Z,95121.00
2023-04-30T07:02:13.009Z,95125.00
2023-04-30T07:03:13.245Z,95121.00
2023-04-30T07:04:13.069Z,95121.00
2023-04-30T07:05:13.118Z,95121.00
2023-04-30T07:06:13.159Z,95119.00
2023-04-30T07:07:13.197Z,95119.00
2023-04-30T07:08:13.225Z,95117.00
2023-04-30T07:09:13.310Z,95117.00
2023-04-30T07:10:13.271Z,95117.00
2023-04-30T07:11:13.312Z,95117.00
2023-04-30T07:12:13.339Z,95117.00
2023-04-30T07:13:13.346Z,95121.00
2023-04-30T07:14:13.394Z,95123.00
2023-04-30T07:15:13.428Z,95121.00
2023-04-30T07:16:13.574Z,95117.00
2023-04-30T07:17:13.534Z,95121.00
2023-04-30T07:18:13.561Z,95121.00
2023-04-30T07:19:13.571Z,95119.00
2023-04-30T07:20:13.586Z,95121.00
2023-04-30T07:21:13.654Z,95117.00
2023-04-30T07:22:13.641Z,95117.00
2023-04-30T07:23:13.715Z,95117.00
2023-04-30T07:24:13.711Z,95119.00
2023-04-30T07:25:13.741Z,95121.00
2023-04-30T07:26:13.775Z,95121.00
2023-04-30T07:27:13.822Z,95121.00
2023-04-30T07:28:13.850Z,95121.00
2023-04-30T07:29:13.876Z,95119.00
2023-04-30T07:30:13.907Z,95121.00
2023-04-30T07:31:13.918Z,95123.00
2023-04-30T07:32:13.921Z,95121.00
2023-04-30T07:33:14.028Z,95119.00
2023-04-30T07:34:14.027Z,95121.00
2023-04-30T07:35:14.015Z,95119.00
2023-04-30T07:36:14.136Z,95117.00
2023-04-30T07:37:14.042Z,95115.00
2023-04-30T07:38:14.105Z,95115.00
2023-04-30T07:39:14.094Z,95111.00
2023-04-30T07:40:19.333Z,95113.00
2023-04-30T07:41:15.150Z,95111.00
2023-04-30T07:42:14.153Z,95111.00
2023-04-30T07:43:14.111Z,95109.00
2023-04-30T07:44:14.112Z,95111.00
2023-04-30T07:45:14.099Z,95109.00
2023-04-30T07:46:14.188Z,95107.00
2023-04-30T07:47:14.086Z,95109.00
2023-04-30T07:48:14.085Z,95111.00
2023-04-30T07:49:14.224Z,95107.00
2023-04-30T07:50:14.108Z,95109.00
2023-04-30T07:51:14.062Z,95109.00
2023-04-30T07:52:14.096Z,95111.00
2023-04-30T07:53:14.074Z,95111.00
2023-04-30T07:54:14.076Z,95109.00
2023-04-30T07:55:14.048Z,95109.00
2023-04-30T07:56:14.041Z,95111.00
2023-04-30T07:57:14.020Z,95109.00
2023-04-30T07:58:14.045Z,95111.00
2023-04-30T07:59:13.999Z,95111.00
2023-04-30T08:00:14.083Z,95109.00
2023-04-30T08:01:14.045Z,95107.00
2023-04-30T08:02:14.145Z,95107.00
2023-04-30T08:03:14.169Z,95109.00
2023-04-30T08:04:14.110Z,95107.00
2023-04-30T08:05:14.110Z,95105.00
2023-04-30T08:06:14.190Z,95107.00
2023-04-30T08:07:14.143Z,95109.00
2023-04-30T08:08:14.192Z,95105.00
2023-04-30T08:09:14.192Z,95107.00
2023-04-30T08:10:14.214Z,95109.00
2023-04-30T08:11:14.265Z,95105.00
2023-04-30T08:12:14.255Z,95109.00
2023-04-30T08:13:14.258Z,95105.00
2023-04-30T08:14:14.320Z,95105.00
2023-04-30T08:15:14.308Z,95105.00
2023-04-30T08:16:14.357Z,95103.00
2023-04-30T08:17:14.339Z,95101.00
2023-04-30T08:18:14.417Z,95101.00
2023-04-30T08:19:14.368Z,95101.00
2023-04-30T08:20:14.388Z,95101.00
2023-04-30T08:21:14.395Z,95103.00
2023-04-30T08:22:14.412Z,95099.00
2023-04-30T08:23:14.437Z,95101.00
2023-04-30T08:24:14.466Z,95097.00
2023-04-30T08:25:14.480Z,95097.00
2023-04-30T08:26:14.494Z,95097.00
2023-04-30T08:27:14.506Z,95093.00
2023-04-30T08:28:14.535Z,95091.00
2023-04-30T08:29:14.574Z,95086.00
2023-04-30T08:30:14.562Z,95089.00
2023-04-30T08:31:14.540Z,95084.00
2023-04-30T08:32:14.643Z,95086.00
2023-04-30T08:33:14.618Z,95082.00
2023-04-30T08:34:14.582Z,95082.00
2023-04-30T08:35:14.634Z,95082.00
2023-04-30T08:36:14.641Z,95086.00
2023-04-30T08:37:14.675Z,95084.00
2023-04-30T08:38:14.690Z,95084.00
2023-04-30T08:39:14.652Z,95086.00
2023-04-30T08:40:14.693Z,95084.00
2023-04-30T08:41:14.687Z,95087.00
2023-04-30T08:42:14.697Z,95084.00
2023-04-30T08:43:14.705Z,95086.00
2023-04-30T08:44:14.682Z,95086.00
2023-04-30T08:45:14.678Z,95084.00
2023-04-30T08:46:14.757Z,95082.00
2023-04-30T08:47:14.722Z,95084.00
2023-04-30T08:48:14.722Z,95086.00
2023-04-30T08:49:14.732Z,95084.00
2023-04-30T08:50:14.735Z,95084.00
2023-04-30T08:51:14.743Z,95082.00
2023-04-30T08:52:14.713Z,95080.00
2023-04-30T08:53:14.739Z,95078.00
2023-04-30T08:54:14.761Z,95078.00
2023-04-30T08:55:14.753Z,95078.00
2023-04-30T08:56:14.775Z,95076.00
2023-04-30T08:57:14.740Z,95078.00
2023-04-30T08:58:14.762Z,95082.00
2023-04-30T08:59:14.748Z,95080.00
2023-04-30T09:00:14.817Z,95080.00
2023-04-30T09:01:14.808Z,95078.00
2023-04-30T09:02:14.826Z,95080.00
2023-04-30T09:03:14.887Z,95080.00
2023-04-30T09:04:14.973Z,95080.00
2023-04-30T09:05:14.854Z,95074.00
2023-04-30T09:06:14.918Z,95076.00
2023-04-30T09:07:14.841Z,95078.00
2023-04-30T09:08:14.864Z,95080.00
2023-04-30T09:09:14.887Z,95080.00
2023-04-30T09:10:14.905Z,95082.00
2023-04-30T09:11:14.881Z,95080.00
2023-04-30T09:12:16.301Z,95078.00
2023-04-30T09:13:14.891Z,95076.00
2023-04-30T09:14:14.895Z,95076.00
2023-04-30T09:15:14.903Z,95080.00
2023-04-30T09:16:14.899Z,95078.00
2023-04-30T09:17:14.869Z,95076.00
2023-04-30T09:18:14.875Z,95076.00
2023-04-30T09:19:14.843Z,95076.00
2023-04-30T09:20:14.859Z,95074.00
2023-04-30T09:21:14.826Z,95070.00
2023-04-30T09:22:14.844Z,95072.00
2023-04-30T09:23:14.843Z,95072.00
2023-04-30T09:24:16.607Z,95070.00
2023-04-30T09:25:14.869Z,95068.00
2023-04-30T09:26:14.814Z,95064.00
2023-04-30T09:27:14.784Z,95064.00
2023-04-30T09:28:14.826Z,95066.00
2023-04-30T09:29:14.782Z,95064.00
2023-04-30T09:30:14.796Z,95062.00
2023-04-30T09:31:14.804Z,95064.00
2023-04-30T09:32:14.808Z,95058.00
2023-04-30T09:33:15.190Z,95058.00
2023-04-30T09:34:14.736Z,95056.00
2023-04-30T09:35:14.761Z,95052.00
2023-04-30T09:36:14.725Z,95050.00
2023-04-30T09:37:14.728Z,95050.00
2023-04-30T09:38:14.744Z,95050.00
2023-04-30T09:39:16.204Z,95054.00
2023-04-30T09:40:14.761Z,95054.00
2023-04-30T09:41:14.713Z,95052.00
2023-04-30T09:42:14.684Z,95050.00
2023-04-30T09:43:14.710Z,95048.00
2023-04-30T09:44:14.707Z,95046.00
2023-04-30T09:45:14.699Z,95044.00
2023-04-30T09:46:14.729Z,95046.00
2023-04-30T09:47:14.734Z,95044.00
2023-04-30T09:48:17.666Z,95037.00
2023-04-30T09:49:14.638Z,95037.00
2023-04-30T09:50:14.680Z,95035.00
2023-04-30T09:51:14.646Z,95033.00
2023-04-30T09:52:14.660Z,95029.00
2023-04-30T09:53:14.674Z,95029.00
2023-04-30T09:54:14.652Z,95025.00
2023-04-30T09:55:14.625Z,95029.00
2023-04-30T09:56:14.633Z,95029.00
2023-04-30T09:57:14.619Z,95027.00
2023-04-30T09:58:14.640Z,95027.00
2023-04-30T09:59:14.636Z,95025.00
2023-04-30T10:00:14.621Z,95023.00
2023-04-30T10:01:14.659Z,95021.00
2023-04-30T10:02:14.596Z,95017.00
2023-04-30T10:03:14.663Z,95017.00
2023-04-30T10:04:14.617Z,95017.00
2023-04-30T10:05:14.565Z,95015.00
2023-04-30T10:06:14.651Z,95013.00
2023-04-30T10:07:16.074Z,95013.00
2023-04-30T10:08:14.779Z,95009.00
2023-04-30T10:09:14.856Z,95007.00
2023-04-30T10:10:14.939Z,95011.00
2023-04-30T10:11:14.952Z,95007.00
2023-04-30T10:12:15.030Z,95011.00
2023-04-30T10:13:15.035Z,95007.00
2023-04-30T10:14:15.049Z,95005.00
2023-04-30T10:15:15.065Z,95001.00
2023-04-30T10:16:15.084Z,95001.00
2023-04-30T10:17:15.124Z,94993.00
2023-04-30T10:18:15.148Z,94993.00
2023-04-30T10:19:15.149Z,94992.00
2023-04-30T10:20:15.210Z,94992.00
2023-04-30T10:21:15.234Z,94990.00
2023-04-30T10:22:15.244Z,94986.00
2023-04-30T10:23:15.265Z,94988.00
2023-04-30T10:24:15.296Z,94988.00
2023-04-30T10:25:15.333Z,94986.00
2023-04-30T10:26:15.367Z,94986.00
2023-04-30T10:27:15.403Z,94984.00
2023-04-30T10:28:15.505Z,94982.00
2023-04-30T10:29:15.463Z,94976.00
2023-04-30T10:30:15.501Z,94974.00
2023-04-30T10:31:15.530Z,94972.00
2023-04-30T10:32:15.667Z,94968.00
2023-04-30T10:33:16.565Z,94968.00
2023-04-30T10:34:15.679Z,94966.00
2023-04-30T10:35:15.742Z,94964.00
2023-04-30T10:36:15.807Z,94966.00
2023-04-30T10:37:15.830Z,94968.00
2023-04-30T10:38:15.920Z,94966.00
2023-04-30T10:39:15.986Z,94964.00
2023-04-30T10:40:16.006Z,94962.00
2023-04-30T10:41:16.086Z,94960.00
2023-04-30T10:42:16.154Z,94958.00
2023-04-30T10:43:16.265Z,94958.00
2023-04-30T10:44:16.278Z,94956.00
2023-04-30T10:45:16.335Z,94962.00
2023-04-30T10:46:16.442Z,94956.00
2023-04-30T10:47:16.429Z,94956.00
2023-04-30T10:48:16.553Z,94954.00
2023-04-30T10:49:16.548Z,94954.00
2023-04-30T10:50:16.621Z,94950.00
2023-04-30T10:51:16.723Z,94948.00
2023-04-30T10:52:16.755Z,94948.00
2023-04-30T10:53:16.826Z,94950.00
2023-04-30T10:54:16.879Z,94946.00
2023-04-30T10:55:16.953Z,94948.00
2023-04-30T10:56:17.022Z,94941.00
2023-04-30T10:57:17.072Z,94946.00
2023-04-30T10:58:17.123Z,94943.00
2023-04-30T10:59:17.182Z,94943.00
2023-04-30T11:00:17.227Z,94937.00
2023-04-30T11:01:17.532Z,94937.00
2023-04-30T11:02:17.362Z,94933.00
2023-04-30T11:03:17.444Z,94929.00
2023-04-30T11:04:17.490Z,94933.00
2023-04-30T11:05:17.642Z,94937.00
2023-04-30T11:06:17.612Z,94935.00
2023-04-30T11:07:17.634Z,94927.00
2023-04-30T11:08:17.653Z,94927.00
2023-04-30T11:09:17.711Z,94927.00
2023-04-30T11:10:17.743Z,94923.00
2023-04-30T11:11:17.825Z,94925.00
2023-04-30T11:12:17.863Z,94923.00
2023-04-30T11:13:17.915Z,94921.00
2023-04-30T11:14:18.021Z,94923.00
2023-04-30T11:15:18.097Z,94921.00
2023-04-30T11:16:18.089Z,94919.00
2023-04-30T11:17:18.123Z,94917.00
2023-04-30T11:18:18.200Z,94913.00
2023-04-30T11:19:18.230Z,94909.00
2023-04-30T11:20:18.307Z,94913.00
2023-04-30T11:21:18.309Z,94911.00
2023-04-30T11:22:18.360Z,94909.00
2023-04-30T11:23:25.327Z,94909.00
2023-04-30T11:24:19.430Z,94907.00
2023-04-30T11:25:18.424Z,94907.00
2023-04-30T11:26:18.424Z,94905.00
2023-04-30T11:27:18.385Z,94909.00
2023-04-30T11:28:18.406Z,94905.00
2023-04-30T11:29:18.417Z,94901.00
2023-04-30T11:30:18.401Z,94903.00
2023-04-30T11:31:18.436Z,94892.00
2023-04-30T11:32:18.417Z,94890.00
2023-04-30T11:33:18.384Z,94890.00
2023-04-30T11:34:18.372Z,94890.00
2023-04-30T11:35:18.400Z,94890.00
2023-04-30T11:36:18.469Z,94888.00
2023-04-30T11:37:18.523Z,94884.00
2023-04-30T11:38:18.529Z,94882.00
2023-04-30T11:39:18.602Z,94884.00
2023-04-30T11:40:18.638Z,94882.00
2023-04-30T11:41:18.720Z,94884.00
2023-04-30T11:42:18.735Z,94882.00
2023-04-30T11:43:18.784Z,94878.00
2023-04-30T11:44:18.851Z,94880.00
2023-04-30T11:45:18.899Z,94884.00